Time;durP1;ratioP1;P1;durP2;ratioP2;P2;SDS_P1;SDS_P2;PMS_P1;PMS_P2;Temp;Humidity;BMP_temperature;BMP_pressure;BME280_temperature;BME280_humidity;BME280_pressure;Samples;Min_cycle;Max_cycle;Signal;HPM_P1;HPM_P2
2022/05/06 00:01:17;;;;;;;7.65;2.05;;;;;;;-149.78;100.00;50228.94;4736148;30;20497;-72
2022/05/06 00:03:44;;;;;;;5.75;2.28;;;;;;;-149.78;100.00;50240.66;4736122;30;20047;-71
2022/05/06 00:06:10;;;;;;;5.88;2.50;;;;;;;-149.78;100.00;50252.41;4720252;30;20135;-72
2022/05/06 00:08:35;;;;;;;5.05;2.40;;;;;;;-149.78;100.00;50256.31;4735766;30;20124;-72
2022/05/06 00:11:01;;;;;;;7.75;2.50;;;;;;;-149.78;100.00;50236.75;4735915;30;20044;-72
2022/05/06 00:13:28;;;;;;;6.32;2.50;;;;;;;-149.78;100.00;50228.94;4735651;30;20045;-68
2022/05/06 00:15:54;;;;;;;8.55;3.55;;;;;;;-149.78;100.00;50275.88;4716968;30;20052;-69
2022/05/06 00:18:20;;;;;;;4.93;2.70;;;;;;;-149.78;100.00;50268.03;4702522;30;20049;-68
2022/05/06 00:20:46;;;;;;;7.53;2.78;;;;;;;-149.78;100.00;50250.44;4718203;30;20467;-68
2022/05/06 00:23:11;;;;;;;8.05;3.03;;;;;;;-149.78;100.00;50203.50;4718109;30;20801;-68
2022/05/06 00:25:37;;;;;;;5.60;2.63;;;;;;;-149.78;100.00;50189.81;4717072;30;20044;-68
2022/05/06 00:28:03;;;;;;;6.65;3.00;;;;;;;-149.78;100.00;50219.16;4718145;30;20067;-68
2022/05/06 00:30:30;;;;;;;6.18;2.97;;;;;;;-149.78;100.00;50248.50;4718068;30;20049;-68
2022/05/06 00:32:55;;;;;;;5.57;2.90;;;;;;;-149.78;100.00;50240.66;4718008;30;20056;-68
2022/05/06 00:35:21;;;;;;;7.00;2.83;;;;;;;-149.78;100.00;50256.31;4717752;30;20156;-68
2022/05/06 00:37:47;;;;;;;7.10;2.45;;;;;;;-149.78;100.00;50228.94;4718157;30;20690;-68
2022/05/06 00:40:16;;;;;;;6.07;3.20;;;;;;;-149.78;100.00;50232.84;4717755;30;20049;-68
2022/05/06 00:42:41;;;;;;;7.00;2.65;;;;;;;-149.78;100.00;50240.66;4730349;30;20045;-68
2022/05/06 00:45:07;;;;;;;5.00;2.90;;;;;;;-149.78;100.00;50207.44;4716634;30;20094;-68
2022/05/06 00:47:34;;;;;;;6.20;2.72;;;;;;;-149.78;100.00;50197.66;4717858;30;20755;-68
2022/05/06 00:50:01;;;;;;;4.22;2.58;;;;;;;-149.78;100.00;50234.81;4731092;30;20065;-68
2022/05/06 00:52:28;;;;;;;3.90;2.55;;;;;;;-149.78;100.00;50226.97;4717752;30;20049;-68
2022/05/06 00:54:54;;;;;;;5.05;2.33;;;;;;;-149.78;100.00;50226.97;4717598;30;20132;-68
2022/05/06 00:57:20;;;;;;;4.18;2.45;;;;;;;-149.78;100.00;50213.28;4716369;30;20364;-68
2022/05/06 01:02:30;;;;;;;4.95;2.40;;;;;;;-149.78;100.00;50183.97;4717354;30;20045;-68
2022/05/06 01:04:55;;;;;;;5.88;2.35;;;;;;;-149.78;100.00;50228.94;4709953;30;20048;-68
2022/05/06 01:07:22;;;;;;;3.05;2.10;;;;;;;-149.78;100.00;50217.19;4730085;30;20064;-68
2022/05/06 01:09:51;;;;;;;5.00;2.00;;;;;;;-149.78;100.00;50211.34;4713275;30;20099;-68
2022/05/06 01:12:17;;;;;;;8.10;2.13;;;;;;;-149.78;100.00;50238.72;4717308;30;20049;-68
2022/05/06 01:14:43;;;;;;;4.18;2.28;;;;;;;-149.78;100.00;50217.19;4717411;30;20048;-68
2022/05/06 01:17:09;;;;;;;4.65;2.20;;;;;;;-149.78;100.00;50238.72;4730764;30;20072;-68
2022/05/06 01:19:35;;;;;;;5.78;2.20;;;;;;;-149.78;100.00;50217.19;4719141;30;20478;-68
2022/05/06 01:22:01;;;;;;;9.55;2.92;;;;;;;-149.78;100.00;50228.94;4734499;30;20131;-67
2022/05/06 01:24:27;;;;;;;5.53;2.05;;;;;;;-149.78;100.00;50240.66;4734398;30;20478;-68
2022/05/06 01:26:55;;;;;;;4.30;2.20;;;;;;;-149.78;100.00;50213.28;4734595;30;20585;-67
2022/05/06 01:29:22;;;;;;;8.38;2.60;;;;;;;-149.78;100.00;50248.50;4734505;30;20036;-68
2022/05/06 01:31:51;;;;;;;3.03;1.70;;;;;;;-149.78;100.00;50213.28;4719044;30;20660;-68
2022/05/06 01:34:18;;;;;;;3.95;2.25;;;;;;;-149.78;100.00;50232.84;4734413;30;20045;-68
2022/05/06 01:36:46;;;;;;;3.40;2.00;;;;;;;-149.78;100.00;50240.66;4734302;30;20044;-67
2022/05/06 01:39:18;;;;;;;3.55;2.15;;;;;;;-149.78;100.00;50236.75;4718774;30;20126;-68
2022/05/06 01:41:45;;;;;;;7.25;1.95;;;;;;;-149.78;100.00;50225.03;4734391;30;20047;-67
2022/05/06 01:44:16;;;;;;;4.85;2.15;;;;;;;-149.78;100.00;50205.47;4734179;30;20045;-67
2022/05/06 01:46:41;;;;;;;6.22;1.90;;;;;;;-149.78;100.00;50213.28;4733098;30;20036;-67
2022/05/06 01:49:10;;;;;;;3.85;2.10;;;;;;;-149.78;100.00;50197.66;4734248;30;20040;-68
2022/05/06 01:51:38;;;;;;;4.70;2.30;;;;;;;-149.78;100.00;50240.66;4734311;30;20051;-67
2022/05/06 01:54:05;;;;;;;6.10;2.40;;;;;;;-149.78;100.00;50189.81;4734091;30;20101;-68
2022/05/06 01:56:30;;;;;;;5.35;2.03;;;;;;;-149.78;100.00;50215.25;4734306;30;20041;-68
2022/05/06 01:58:56;;;;;;;5.85;2.15;;;;;;;-149.78;100.00;50215.25;4730977;30;20532;-67
2022/05/06 02:01:22;;;;;;;3.92;2.30;;;;;;;-149.78;100.00;50205.47;4716179;30;20052;-68
2022/05/06 02:06:32;;;;;;;6.65;2.50;;;;;;;-149.78;100.00;50199.59;4716638;30;20143;-68
2022/05/06 02:08:57;;;;;;;8.90;2.67;;;;;;;-149.78;100.00;50248.50;4715986;30;20044;-69
2022/05/06 02:11:23;;;;;;;7.53;2.75;;;;;;;-149.78;100.00;50213.28;4700466;30;20525;-68
2022/05/06 02:13:49;;;;;;;6.15;2.22;;;;;;;-149.78;100.00;50228.94;4731262;30;20044;-68
2022/05/06 02:16:16;;;;;;;4.35;2.22;;;;;;;-149.78;100.00;50205.47;4733459;30;20077;-67
2022/05/06 02:18:42;;;;;;;4.88;2.05;;;;;;;-149.78;100.00;50213.28;4733902;30;20040;-70
2022/05/06 02:21:07;;;;;;;9.95;2.67;;;;;;;-149.78;100.00;50217.19;4732785;30;20033;-67
2022/05/06 02:23:33;;;;;;;6.65;2.38;;;;;;;-149.78;100.00;50205.47;4718243;30;20175;-67
2022/05/06 02:25:59;;;;;;;4.72;2.55;;;;;;;-149.78;100.00;50248.50;4733941;30;20493;-67
2022/05/06 02:28:25;;;;;;;5.38;2.20;;;;;;;-149.78;100.00;50225.03;4718033;30;20041;-68
2022/05/06 02:33:35;;;;;;;5.72;2.42;;;;;;;-149.78;100.00;50209.38;4733771;30;20096;-68
2022/05/06 02:36:02;;;;;;;5.97;2.80;;;;;;;-149.78;100.00;50217.19;4718073;30;20486;-67
2022/05/06 02:38:29;;;;;;;7.75;2.58;;;;;;;-149.78;100.00;50197.66;4733780;30;20060;-68
2022/05/06 02:40:55;;;;;;;6.18;2.65;;;;;;;-149.78;100.00;50234.81;4731383;30;20123;-69
2022/05/06 02:43:22;;;;;;;8.65;2.55;;;;;;;-149.78;100.00;50203.50;4700349;30;20048;-68
2022/05/06 02:45:47;;;;;;;7.30;2.40;;;;;;;-149.78;100.00;50228.94;4716303;30;20045;-68
2022/05/06 02:48:13;;;;;;;6.63;2.50;;;;;;;-149.78;100.00;50189.81;4716175;30;20199;-68
2022/05/06 02:50:41;;;;;;;7.55;3.25;;;;;;;-149.78;100.00;50205.47;4716166;30;20478;-68
2022/05/06 02:53:07;;;;;;;6.18;2.33;;;;;;;-149.78;100.00;50240.66;4716228;30;20142;-68
2022/05/06 02:55:33;;;;;;;5.00;2.20;;;;;;;-149.78;100.00;50217.19;4700491;30;20442;-68
2022/05/06 02:57:59;;;;;;;5.03;2.40;;;;;;;-149.78;100.00;50205.47;4700541;30;20554;-68
2022/05/06 03:00:26;;;;;;;4.80;2.22;;;;;;;-149.78;100.00;50209.38;4716019;30;20049;-68
2022/05/06 03:02:52;;;;;;;8.60;2.85;;;;;;;-149.78;100.00;50232.84;4720861;30;20037;-68
2022/05/06 03:05:18;;;;;;;7.15;2.65;;;;;;;-149.78;100.00;50182.00;4725737;30;20044;-68
2022/05/06 03:07:43;;;;;;;5.00;2.78;;;;;;;-149.78;100.00;50225.03;4734399;30;20044;-68
2022/05/06 03:10:10;;;;;;;6.28;2.45;;;;;;;-149.78;100.00;50225.03;4720671;30;20512;-68
2022/05/06 03:12:42;;;;;;;10.15;3.25;;;;;;;-149.78;100.00;50226.97;4720954;30;20041;-68
2022/05/06 03:15:08;;;;;;;8.00;3.05;;;;;;;-149.78;100.00;50240.66;4736552;30;20074;-68
2022/05/06 03:17:34;;;;;;;6.07;3.10;;;;;;;-149.78;100.00;50219.16;4736644;30;20099;-69
2022/05/06 03:20:00;;;;;;;9.68;2.88;;;;;;;-149.78;100.00;50240.66;4736532;30;20043;-68
2022/05/06 03:22:27;;;;;;;9.13;3.20;;;;;;;-149.78;100.00;50185.91;4736560;30;20045;-69
2022/05/06 03:24:53;;;;;;;7.95;3.20;;;;;;;-149.78;100.00;50189.81;4721149;30;20125;-68
2022/05/06 03:30:04;;;;;;;10.07;3.28;;;;;;;-149.78;100.00;50232.84;4719142;30;20104;-69
2022/05/06 03:32:33;;;;;;;7.78;3.60;;;;;;;-149.78;100.00;50223.06;4719074;30;20037;-69
2022/05/06 03:34:59;;;;;;;10.32;3.83;;;;;;;-149.78;100.00;50189.81;4703272;30;20049;-68
2022/05/06 03:37:26;;;;;;;6.13;3.17;;;;;;;-149.78;100.00;50213.28;4729522;30;20492;-69
2022/05/06 03:39:52;;;;;;;8.75;3.50;;;;;;;-149.78;100.00;50232.84;4736166;30;20118;-69
2022/05/06 03:42:18;;;;;;;11.25;3.75;;;;;;;-149.78;100.00;50209.38;4736245;30;20087;-69
2022/05/06 03:44:43;;;;;;;9.02;4.05;;;;;;;-149.78;100.00;50209.38;4736115;30;20049;-69
2022/05/06 03:47:09;;;;;;;10.68;4.00;;;;;;;-149.78;100.00;50225.03;4720229;30;20045;-68
2022/05/06 03:49:34;;;;;;;12.27;4.35;;;;;;;-149.78;100.00;50244.59;4718668;30;20049;-68
2022/05/06 03:52:00;;;;;;;11.80;4.30;;;;;;;-149.78;100.00;50230.88;4702931;30;20053;-68
2022/05/06 03:54:26;;;;;;;19.40;4.82;;;;;;;-149.78;100.00;50244.59;4717794;30;20056;-69
2022/05/06 03:56:53;;;;;;;11.68;5.20;;;;;;;-149.78;100.00;50213.28;4718509;30;20107;-69
2022/05/06 03:59:19;;;;;;;15.35;4.90;;;;;;;-149.78;100.00;50232.84;4718452;30;20037;-69
2022/05/06 04:01:45;;;;;;;14.30;5.20;;;;;;;-149.78;100.00;50226.97;4718356;30;20037;-69
2022/05/06 04:04:16;;;;;;;11.75;5.18;;;;;;;-149.78;100.00;50232.84;4718190;30;20540;-68
2022/05/06 04:06:44;;;;;;;14.27;5.05;;;;;;;-149.78;100.00;50201.56;4718354;30;20037;-68
2022/05/06 04:09:12;;;;;;;9.60;5.03;;;;;;;-149.78;100.00;50236.75;4718413;30;20138;-69
2022/05/06 04:11:37;;;;;;;12.02;5.30;;;;;;;-149.78;100.00;50213.28;4729268;30;20045;-69
2022/05/06 04:14:03;;;;;;;15.98;5.47;;;;;;;-149.78;100.00;50236.75;4735344;30;20103;-69
2022/05/06 04:16:29;;;;;;;11.38;5.05;;;;;;;-149.78;100.00;50256.31;4734212;30;20099;-69
2022/05/06 04:18:55;;;;;;;11.65;4.78;;;;;;;-149.78;100.00;50195.69;4735637;30;20131;-69
2022/05/06 04:24:05;;;;;;;14.35;5.38;;;;;;;-149.78;100.00;50236.75;4735503;30;20106;-68
2022/05/06 04:26:31;;;;;;;12.80;5.13;;;;;;;-149.78;100.00;50256.31;4728265;30;20471;-69
2022/05/06 04:28:56;;;;;;;13.32;4.95;;;;;;;-149.78;100.00;50223.06;4670917;30;20046;-69
2022/05/06 04:31:22;;;;;;;10.02;5.13;;;;;;;-149.78;100.00;50197.66;4716237;30;20076;-69
2022/05/06 04:33:48;;;;;;;12.50;5.07;;;;;;;-149.78;100.00;50221.13;4717575;30;20510;-69
2022/05/06 04:36:14;;;;;;;11.40;4.90;;;;;;;-149.78;100.00;50201.56;4717891;30;20077;-68
2022/05/06 04:38:40;;;;;;;10.48;5.13;;;;;;;-149.78;100.00;50223.06;4718011;30;20138;-68
2022/05/06 04:41:05;;;;;;;13.63;5.45;;;;;;;-149.78;100.00;50244.59;4717836;30;20052;-69
2022/05/06 04:43:32;;;;;;;12.27;5.47;;;;;;;-149.78;100.00;50240.66;4717962;30;20041;-68
2022/05/06 04:45:58;;;;;;;16.85;5.20;;;;;;;-149.78;100.00;50236.75;4717605;30;20123;-69
2022/05/06 04:48:25;;;;;;;11.80;4.97;;;;;;;-149.78;100.00;50197.66;4702126;30;20064;-68
2022/05/06 04:50:50;;;;;;;11.20;5.65;;;;;;;-149.78;100.00;50221.13;4717653;30;20045;-69
2022/05/06 04:53:16;;;;;;;12.70;5.43;;;;;;;-149.78;100.00;50256.31;4716410;30;20157;-69
2022/05/06 04:55:46;;;;;;;11.95;4.97;;;;;;;-149.78;100.00;50248.50;4717432;30;20049;-68
2022/05/06 04:58:14;;;;;;;10.63;4.50;;;;;;;-149.78;100.00;50205.47;4717427;30;20049;-68
2022/05/06 05:00:40;;;;;;;12.00;5.28;;;;;;;-149.78;100.00;50219.16;4702038;30;20076;-69
2022/05/06 05:03:07;;;;;;;14.25;5.18;;;;;;;-149.78;100.00;50197.66;4717463;30;20119;-69
2022/05/06 05:05:32;;;;;;;13.52;5.30;;;;;;;-149.78;100.00;50240.66;4717464;30;20526;-69
2022/05/06 05:07:58;;;;;;;12.35;5.07;;;;;;;-149.78;100.00;50213.28;4717295;30;20041;-69
2022/05/06 05:10:24;;;;;;;11.05;4.80;;;;;;;-149.78;100.00;50248.50;4689767;30;20053;-69
2022/05/06 05:12:50;;;;;;;15.85;5.57;;;;;;;-149.78;100.00;50260.22;4734806;30;20171;-69
2022/05/06 05:15:16;;;;;;;12.68;5.05;;;;;;;-149.78;100.00;50201.56;4734779;30;20123;-68
2022/05/06 05:17:44;;;;;;;11.68;5.03;;;;;;;-149.78;100.00;50193.72;4704848;30;20057;-69
2022/05/06 05:20:10;;;;;;;12.27;6.47;;;;;;;-149.78;100.00;50226.97;4724425;30;20203;-69
2022/05/06 05:22:36;;;;;;;12.52;4.85;;;;;;;-149.78;100.00;50250.44;4715908;30;20040;-68
2022/05/06 05:25:03;;;;;;;11.93;5.38;;;;;;;-149.78;100.00;50225.03;4700363;30;20509;-69
2022/05/06 05:27:31;;;;;;;12.05;5.72;;;;;;;-149.78;100.00;50225.03;4713693;30;20041;-69
2022/05/06 05:29:57;;;;;;;12.70;5.03;;;;;;;-149.78;100.00;50270.00;4715381;30;20156;-69
2022/05/06 05:32:23;;;;;;;9.68;5.30;;;;;;;-149.78;100.00;50234.81;4715933;30;20045;-69
2022/05/06 05:34:49;;;;;;;11.93;5.57;;;;;;;-149.78;100.00;50234.81;4700130;30;20064;-69
2022/05/06 05:37:15;;;;;;;19.08;5.13;;;;;;;-149.78;100.00;50252.41;4715641;30;20498;-69
2022/05/06 05:39:41;;;;;;;10.55;4.55;;;;;;;-149.78;100.00;50234.81;4714043;30;20131;-69
2022/05/06 05:42:07;;;;;;;13.38;5.18;;;;;;;-149.78;100.00;50244.59;4715071;30;20124;-69
2022/05/06 05:50:06;;;;;;;12.10;4.63;;;;;;;-149.78;100.00;50225.03;4716735;30;20052;-68
2022/05/06 05:52:33;;;;;;;10.27;4.88;;;;;;;-149.78;100.00;50244.59;4695871;30;20048;-68
2022/05/06 05:54:59;;;;;;;9.25;5.22;;;;;;;-149.78;100.00;50221.13;4696847;30;20094;-69
2022/05/06 05:57:24;;;;;;;14.82;5.22;;;;;;;-149.78;100.00;50240.66;4692694;30;20366;-69
2022/05/06 05:59:50;;;;;;;8.75;4.78;;;;;;;-149.78;100.00;50228.94;4715497;30;20044;-69
2022/05/06 06:02:18;;;;;;;10.05;5.15;;;;;;;-149.78;100.00;50225.03;4715067;30;20041;-69
2022/05/06 06:04:44;;;;;;;12.98;4.88;;;;;;;-149.78;100.00;50203.50;4714124;30;20047;-69
2022/05/06 06:07:09;;;;;;;9.70;4.57;;;;;;;-149.78;100.00;50207.44;4713880;30;20077;-70
2022/05/06 06:09:35;;;;;;;9.40;4.50;;;;;;;-149.78;100.00;50209.38;4713539;30;20134;-68
2022/05/06 06:12:01;;;;;;;10.13;4.07;;;;;;;-149.78;100.00;50185.91;4714173;30;20037;-69
2022/05/06 06:14:27;;;;;;;11.63;4.15;;;;;;;-149.78;100.00;50203.50;4715130;30;20041;-69
2022/05/06 06:16:53;;;;;;;10.68;4.47;;;;;;;-149.78;100.00;50209.38;4714817;30;20059;-69
2022/05/06 06:19:18;;;;;;;9.00;4.25;;;;;;;-149.78;100.00;50217.19;4715222;30;20124;-69
2022/05/06 06:21:45;;;;;;;8.10;4.13;;;;;;;-149.78;100.00;50142.88;4697831;30;20482;-67
2022/05/06 06:24:10;;;;;;;12.02;4.50;;;;;;;-149.78;100.00;50172.22;4715887;30;20049;-68
2022/05/06 06:26:36;;;;;;;9.68;3.92;;;;;;;-149.78;100.00;50172.22;4699806;30;20036;-69
2022/05/06 06:29:03;;;;;;;9.48;4.03;;;;;;;-149.78;100.00;50150.72;4714323;30;20137;-69
2022/05/06 06:31:31;;;;;;;7.75;3.63;;;;;;;-149.78;100.00;50137.03;4714512;30;20040;-69
2022/05/06 06:34:00;;;;;;;9.77;3.95;;;;;;;-149.78;100.00;50154.63;4712667;30;20509;-72
2022/05/06 06:36:27;;;;;;;6.40;3.20;;;;;;;-149.78;100.00;50197.66;4715758;30;20046;-73
2022/05/06 06:38:52;;;;;;;7.85;3.72;;;;;;;-149.78;100.00;50162.44;4699778;30;20502;-72
2022/05/06 06:41:20;;;;;;;9.80;3.63;;;;;;;-149.78;100.00;50142.88;4688950;30;20041;-73
2022/05/06 06:43:49;;;;;;;7.95;3.50;;;;;;;-149.78;100.00;50131.16;4703730;30;20029;-73
2022/05/06 06:46:16;;;;;;;10.73;4.30;;;;;;;-149.78;100.00;50119.41;4719639;30;20491;-72
2022/05/06 06:48:42;;;;;;;7.55;3.50;;;;;;;-149.78;100.00;50094.00;4701948;30;20045;-73
2022/05/06 06:51:08;;;;;;;10.23;3.70;;;;;;;-149.78;100.00;50099.88;4701384;30;20168;-69
2022/05/06 06:53:34;;;;;;;10.85;4.00;;;;;;;-149.78;100.00;50076.41;4714400;30;20048;-68
2022/05/06 06:56:00;;;;;;;8.07;3.45;;;;;;;-149.78;100.00;50045.09;4717320;30;20521;-69
2022/05/06 06:58:25;;;;;;;7.95;4.00;;;;;;;-149.78;100.00;50074.44;4699356;30;20701;-69
2022/05/06 07:00:52;;;;;;;8.80;3.92;;;;;;;-149.78;100.00;50025.56;4718640;30;20064;-70
2022/05/06 07:03:20;;;;;;;7.05;3.92;;;;;;;-149.78;100.00;50033.38;4718854;30;20041;-69
2022/05/06 07:12:16;;;;;;;7.07;3.28;;;;;;;-149.78;100.00;50013.81;4717413;30;20045;-69
2022/05/06 07:14:10;;;;;;;6.50;3.47;;;;;;;-149.78;100.00;50043.16;4717335;30;20124;-71
2022/05/06 07:16:38;;;;;;;5.47;3.20;;;;;;;-149.78;100.00;50060.75;4717235;30;20090;-73
2022/05/06 07:19:04;;;;;;;7.20;3.53;;;;;;;-149.78;100.00;50013.81;4718572;30;20119;-73
2022/05/06 07:21:32;;;;;;;9.25;3.53;;;;;;;-149.78;100.00;50070.53;4718733;30;20040;-73
2022/05/06 07:23:57;;;;;;;7.25;3.10;;;;;;;-149.78;100.00;50011.88;4718128;30;20041;-73
2022/05/06 07:26:24;;;;;;;6.13;3.38;;;;;;;-149.78;100.00;50064.66;4715218;30;20184;-73
2022/05/06 07:28:50;;;;;;;8.05;4.13;;;;;;;-149.78;100.00;50062.72;4717977;30;20044;-72
2022/05/06 07:31:15;;;;;;;7.93;3.55;;;;;;;-149.78;100.00;50064.66;4702367;30;20494;-72
2022/05/06 07:33:41;;;;;;;6.57;3.65;;;;;;;-149.78;100.00;50094.00;4718914;30;20041;-73
2022/05/06 07:36:07;;;;;;;7.93;3.85;;;;;;;-149.78;100.00;50084.22;4703371;30;20053;-73
2022/05/06 07:38:32;;;;;;;7.30;3.88;;;;;;;-149.78;100.00;50078.34;4688398;30;20048;-73
2022/05/06 07:41:03;;;;;;;7.30;3.65;;;;;;;-149.78;100.00;50070.53;4703308;30;20045;-73
2022/05/06 07:43:29;;;;;;;7.28;4.00;;;;;;;-149.78;100.00;50049.03;4718859;30;20491;-73
2022/05/06 07:45:55;;;;;;;7.22;3.67;;;;;;;-149.78;100.00;50068.56;4702170;30;20047;-73
2022/05/06 07:48:21;;;;;;;8.73;3.45;;;;;;;-149.78;100.00;50011.88;4703336;30;20099;-73
2022/05/06 07:50:48;;;;;;;5.03;3.33;;;;;;;-149.78;100.00;50029.47;4718473;30;20041;-73
2022/05/06 07:53:15;;;;;;;9.75;3.97;;;;;;;-149.78;100.00;50017.72;4718727;30;20049;-73
2022/05/06 07:55:42;;;;;;;10.82;3.50;;;;;;;-149.78;100.00;49951.25;4702891;30;20037;-74
2022/05/06 07:58:09;;;;;;;8.45;4.13;;;;;;;-149.78;100.00;49947.34;4718442;30;20402;-73
2022/05/06 08:00:35;;;;;;;7.55;4.05;;;;;;;-149.78;100.00;50006.00;4718468;30;20033;-73
2022/05/06 08:05:47;;;;;;;8.57;4.20;;;;;;;-149.78;100.00;49974.72;4715530;30;20040;-73
2022/05/06 08:08:14;;;;;;;7.50;3.75;;;;;;;-149.78;89.71;49990.34;4715039;30;20394;-73
2022/05/06 08:10:40;;;;;;;6.13;4.10;;;;;;;-149.78;96.03;49984.50;4722308;30;20084;-73
2022/05/06 08:13:06;;;;;;;7.63;4.40;;;;;;;-149.78;100.00;49990.34;4724513;30;20033;-73
2022/05/06 08:15:33;;;;;;;7.97;4.35;;;;;;;-149.78;93.32;49994.25;4716582;30;20045;-73
2022/05/06 08:17:59;;;;;;;10.18;4.20;;;;;;;-149.78;75.30;49916.03;4716232;30;20057;-73
2022/05/06 08:20:25;;;;;;;9.05;4.32;;;;;;;-149.78;63.96;49890.63;4700846;30;20036;-74
2022/05/06 08:22:51;;;;;;;7.10;4.25;;;;;;;-149.78;65.09;49916.03;4716191;30;20045;-73
2022/05/06 08:25:18;;;;;;;7.70;4.00;;;;;;;-149.78;65.21;49896.50;4701155;30;20083;-73
2022/05/06 08:27:44;;;;;;;7.18;4.22;;;;;;;-149.78;59.99;49908.22;4716681;30;20474;-73
2022/05/06 08:30:12;;;;;;;7.53;4.40;;;;;;;-149.78;57.88;49900.41;4716451;30;20041;-74
2022/05/06 08:32:39;;;;;;;10.18;4.55;;;;;;;-149.78;58.14;49884.75;4716673;30;20037;-73
2022/05/06 08:35:06;;;;;;;5.55;4.05;;;;;;;-149.78;55.15;49853.47;4712483;30;20040;-74
2022/05/06 08:37:40;;;;;;;7.90;4.10;;;;;;;-149.78;53.52;49855.41;4715797;30;20033;-74
2022/05/06 08:40:09;;;;;;;6.72;4.18;;;;;;;-149.78;55.11;49904.31;4713914;30;20052;-74
2022/05/06 08:42:34;;;;;;;8.50;4.53;;;;;;;-149.78;58.03;49935.59;4697853;30;20502;-74
2022/05/06 08:53:16;;;;;;;8.63;3.70;;;;;;;-149.78;51.40;49880.84;4715907;30;20061;-74
2022/05/06 08:55:42;;;;;;;5.95;3.83;;;;;;;-149.78;48.31;49814.34;4700463;30;20044;-74
2022/05/06 08:58:09;;;;;;;5.63;3.85;;;;;;;-149.78;45.04;49822.19;4716107;30;20048;-74
2022/05/06 09:00:35;;;;;;;8.15;3.97;;;;;;;-149.78;43.96;49794.81;4715970;30;20058;-74
2022/05/06 09:03:01;;;;;;;7.78;4.40;;;;;;;-149.78;43.88;49839.78;4715271;30;20065;-74
2022/05/06 09:05:27;;;;;;;8.15;4.30;;;;;;;-149.78;43.08;49788.94;4710409;30;20651;-74
2022/05/06 09:07:58;;;;;;;7.40;4.15;;;;;;;-149.78;43.59;49759.59;4717533;30;20041;-74
2022/05/06 09:10:25;;;;;;;7.93;3.93;;;;;;;-149.78;44.98;49814.34;4703977;30;20068;-74
2022/05/06 09:12:55;;;;;;;7.55;4.18;;;;;;;-149.78;43.78;49798.72;4734706;30;20638;-74
2022/05/06 09:18:10;;;;;;;7.18;3.83;;;;;;;-149.78;47.84;49845.66;4718856;30;20119;-73
2022/05/06 09:20:36;;;;;;;5.57;3.70;;;;;;;-149.78;45.13;49796.75;4718888;30;20041;-72
2022/05/06 09:23:24;;;;;;;8.93;4.32;;;;;;;-149.78;44.15;49775.25;4716522;30;20040;-70
2022/05/06 09:25:54;;;;;;;7.03;3.97;;;;;;;-149.78;44.54;49794.81;4716397;30;20033;-71
2022/05/06 09:28:27;;;;;;;7.15;4.13;;;;;;;-149.78;45.25;49785.03;4716376;30;20056;-71
2022/05/06 09:31:06;;;;;;;6.97;4.32;;;;;;;-149.78;44.43;49808.50;4716648;30;20103;-70
2022/05/06 09:33:35;;;;;;;6.55;3.72;;;;;;;-149.78;46.98;49790.91;4699603;30;20037;-71
2022/05/06 09:36:21;;;;;;;8.93;4.47;;;;;;;-149.78;44.14;49806.53;4704200;30;20071;-70
2022/05/06 09:39:05;;;;;;;6.63;4.30;;;;;;;-149.78;45.42;49810.44;4716377;30;20065;-71
2022/05/06 09:41:31;;;;;;;6.72;3.97;;;;;;;-149.78;45.13;49853.47;4696496;30;20430;-71
2022/05/06 09:44:08;;;;;;;7.40;4.00;;;;;;;-149.78;47.95;49861.28;4700126;30;20076;-71
2022/05/06 09:46:35;;;;;;;6.22;3.83;;;;;;;-149.78;49.47;49865.19;4716210;30;20082;-71
2022/05/06 09:49:02;;;;;;;6.85;4.03;;;;;;;-149.78;51.57;49892.56;4715784;30;20037;-71
2022/05/06 09:51:36;;;;;;;6.70;4.05;;;;;;;-149.78;59.31;49945.38;4714733;30;20613;-71
2022/05/06 09:54:05;;;;;;;9.82;4.28;;;;;;;-149.78;59.88;49951.25;4699542;30;20079;-71
2022/05/06 09:56:31;;;;;;;5.70;4.00;;;;;;;-149.78;65.53;49990.34;4713071;30;20045;-70
2022/05/06 09:58:57;;;;;;;10.52;4.47;;;;;;;-149.78;72.66;49970.78;4715334;30;20033;-70
2022/05/06 10:01:23;;;;;;;5.22;3.60;;;;;;;-149.78;73.01;50025.56;4715871;30;20041;-70
2022/05/06 10:03:51;;;;;;;6.50;3.35;;;;;;;-149.78;68.47;49966.88;4716569;30;20045;-68
2022/05/06 10:06:20;;;;;;;7.70;3.30;;;;;;;-149.78;68.54;49998.19;4716498;30;20041;-67
2022/05/06 10:08:53;;;;;;;6.68;3.00;;;;;;;-149.78;65.42;50041.19;4713855;30;20030;-67
2022/05/06 10:11:22;;;;;;;6.20;3.60;;;;;;;-149.78;64.29;49970.78;4711899;30;20033;-67
2022/05/06 10:13:50;;;;;;;6.95;3.50;;;;;;;-149.78;60.07;49992.31;4726581;30;20393;-68
2022/05/06 10:16:16;;;;;;;4.40;3.28;;;;;;;-149.78;59.02;50007.94;4733474;30;20119;-68
2022/05/06 10:18:43;;;;;;;4.18;3.15;;;;;;;-149.78;60.05;49927.78;4733941;30;20525;-68
2022/05/06 10:21:10;;;;;;;3.75;2.90;;;;;;;-149.78;60.54;49966.88;4701785;30;20045;-68
2022/05/06 10:23:45;;;;;;;5.57;3.17;;;;;;;-149.78;59.90;49964.94;4714746;30;20033;-68
2022/05/06 10:26:37;;;;;;;5.30;2.85;;;;;;;-149.78;60.79;49962.97;4714277;30;20495;-68
2022/05/06 10:35:03;;;;;;;5.30;3.28;;;;;;;-149.78;61.46;49962.97;4716229;30;20043;-68
2022/05/06 10:37:36;;;;;;;5.63;3.03;;;;;;;-149.78;64.85;50009.91;4716026;30;20033;-68
2022/05/06 10:40:23;;;;;;;5.28;2.70;;;;;;;-149.78;63.90;49974.72;4716009;30;20083;-68
2022/05/06 10:42:50;;;;;;;5.47;2.97;;;;;;;-149.78;64.21;50009.91;4715955;30;20033;-67
2022/05/06 10:45:27;;;;;;;5.63;2.75;;;;;;;-149.78;65.00;50011.88;4715987;30;20195;-68
2022/05/06 10:47:53;;;;;;;4.20;2.70;;;;;;;-149.78;66.58;50017.72;4715767;30;20560;-68
2022/05/06 10:50:21;;;;;;;5.20;2.80;;;;;;;-149.78;67.29;49998.19;4715738;30;20044;-68
2022/05/06 10:52:47;;;;;;;4.47;2.92;;;;;;;-149.78;68.61;50019.69;4715946;30;20116;-68
2022/05/06 10:55:15;;;;;;;7.82;2.72;;;;;;;-149.78;69.65;50037.28;4715894;30;20533;-68
2022/05/06 10:57:44;;;;;;;6.65;3.00;;;;;;;-149.78;69.40;50021.63;4716040;30;20520;-68
2022/05/06 11:00:10;;;;;;;4.38;3.05;;;;;;;-149.78;69.96;49990.34;4715855;30;20041;-68
2022/05/06 11:02:38;;;;;;;6.85;2.97;;;;;;;-149.78;66.73;50021.63;4700334;30;20519;-68
2022/05/06 11:05:08;;;;;;;5.82;3.25;;;;;;;-149.78;70.81;50021.63;4715950;30;20075;-68
2022/05/06 11:07:39;;;;;;;3.60;2.67;;;;;;;-149.78;75.09;50064.66;4716128;30;20553;-68
2022/05/06 11:10:22;;;;;;;6.32;2.90;;;;;;;-149.78;80.99;50041.19;4715891;30;20041;-68
2022/05/06 11:12:50;;;;;;;6.75;2.97;;;;;;;-149.78;78.41;50000.13;4707749;30;20068;-68
2022/05/06 11:15:19;;;;;;;4.47;2.95;;;;;;;-149.78;81.42;50060.75;4733313;30;20098;-69
2022/05/06 11:17:46;;;;;;;5.18;3.25;;;;;;;-149.78;80.14;50049.03;4733380;30;20064;-68
2022/05/06 11:20:23;;;;;;;5.32;3.30;;;;;;;-149.78;77.90;50037.28;4733198;30;20041;-68
2022/05/06 11:23:18;;;;;;;6.68;3.05;;;;;;;-149.78;88.86;50039.25;4733211;30;20402;-68
2022/05/06 11:25:46;;;;;;;7.10;3.17;;;;;;;-149.78;88.99;50095.94;4721970;30;20087;-68
2022/05/06 11:28:14;;;;;;;4.35;2.63;;;;;;;-149.78;89.75;50056.84;4720704;30;20530;-68
2022/05/06 11:30:44;;;;;;;5.90;3.10;;;;;;;-149.78;95.96;50049.03;4736445;30;20045;-68
2022/05/06 11:33:24;;;;;;;3.97;2.65;;;;;;;-149.78;87.71;50049.03;4736486;30;20041;-69
2022/05/06 11:35:52;;;;;;;6.40;3.17;;;;;;;-149.78;86.26;50045.09;4736399;30;20072;-69
2022/05/06 11:38:31;;;;;;;6.65;2.88;;;;;;;-149.78;82.44;50033.38;4736333;30;20057;-69
2022/05/06 11:41:15;;;;;;;6.75;2.75;;;;;;;-149.78;80.38;50056.84;4736152;30;20051;-68
2022/05/06 11:43:42;;;;;;;5.57;2.88;;;;;;;-149.78;80.16;50021.63;4736186;30;20124;-68
2022/05/06 11:49:06;;;;;;;6.55;2.97;;;;;;;-149.78;85.89;50041.19;4736042;30;20044;-69
2022/05/06 11:51:40;;;;;;;5.97;3.13;;;;;;;-149.78;83.88;50056.84;4724398;30;20542;-68
2022/05/06 11:54:07;;;;;;;6.90;2.97;;;;;;;-149.78;86.87;50058.78;4715453;30;20054;-68
2022/05/06 11:56:34;;;;;;;5.28;3.33;;;;;;;-149.78;92.12;50049.03;4701149;30;20045;-68
2022/05/06 11:59:01;;;;;;;6.20;2.75;;;;;;;-149.78;91.58;50064.66;4714001;30;20052;-68